createdAt,value
2019-05-06T00:00:27.437Z,5.20
2019-05-06T00:01:34.359Z,5.10
2019-05-06T00:02:43.586Z,5.10
2019-05-06T00:03:50.482Z,5.10
2019-05-06T00:04:57.262Z,5.00
2019-05-06T00:06:04.267Z,5.00
2019-05-06T00:07:11.318Z,4.90
2019-05-06T00:08:18.364Z,4.90
2019-05-06T00:09:25.929Z,4.90
2019-05-06T00:10:35.771Z,4.90
2019-05-06T00:11:44.729Z,4.90
2019-05-06T00:12:53.538Z,4.80
2019-05-06T00:14:00.168Z,4.80
2019-05-06T00:15:08.107Z,4.70
2019-05-06T00:16:14.836Z,4.70
2019-05-06T00:17:23.820Z,4.60
2019-05-06T00:18:30.699Z,4.70
2019-05-06T00:19:37.418Z,4.60
2019-05-06T00:20:44.554Z,4.50
2019-05-06T00:21:51.321Z,4.50
2019-05-06T00:23:04.407Z,4.40
2019-05-06T00:24:11.211Z,4.40
2019-05-06T00:25:24.263Z,4.30
2019-05-06T00:26:49.067Z,4.30
2019-05-06T00:28:20.987Z,4.30
2019-05-06T00:29:30.371Z,4.30
2019-05-06T00:30:37.211Z,4.20
2019-05-06T00:31:44.082Z,4.20
2019-05-06T00:32:50.871Z,4.20
2019-05-06T00:33:58.424Z,4.20
2019-05-06T00:35:06.215Z,4.10
2019-05-06T00:36:14.159Z,4.10
2019-05-06T00:37:21.023Z,4.00
2019-05-06T00:38:28.163Z,4.00
2019-05-06T00:39:45.282Z,4.00
2019-05-06T00:40:54.674Z,4.00
2019-05-06T00:42:09.055Z,3.90
2019-05-06T00:43:16.143Z,3.90
2019-05-06T00:44:23.903Z,3.90
2019-05-06T00:45:31.247Z,3.90
2019-05-06T00:46:38.032Z,3.90
2019-05-06T00:47:44.793Z,3.80
2019-05-06T00:48:51.529Z,3.80
2019-05-06T00:49:58.608Z,3.80
2019-05-06T00:51:05.401Z,3.70
2019-05-06T00:52:13.622Z,3.70
2019-05-06T00:53:23.823Z,3.70
2019-05-06T00:54:30.916Z,3.60
2019-05-06T00:55:38.206Z,3.60
2019-05-06T00:56:44.946Z,3.60
2019-05-06T00:57:54.313Z,3.70
2019-05-06T00:59:00.664Z,3.70
2019-05-06T01:00:07.509Z,3.60
2019-05-06T01:01:25.903Z,3.70
2019-05-06T01:02:23.461Z,3.70
2019-05-06T01:03:30.497Z,3.70
2019-05-06T01:04:37.928Z,3.80
2019-05-06T01:05:44.761Z,3.80
2019-05-06T01:06:51.860Z,3.80
2019-05-06T01:07:59.236Z,3.80
2019-05-06T01:09:10.757Z,3.80
2019-05-06T01:10:18.510Z,3.80
2019-05-06T01:11:26.021Z,3.80
2019-05-06T01:12:34.652Z,3.70
2019-05-06T01:13:49.874Z,3.70
2019-05-06T01:14:57.408Z,3.70
2019-05-06T01:16:04.713Z,3.70
2019-05-06T01:17:13.307Z,3.70
2019-05-06T01:18:20.643Z,3.70
2019-05-06T01:19:28.263Z,3.70
2019-05-06T01:20:34.995Z,3.60
2019-05-06T01:21:41.757Z,3.60
2019-05-06T01:22:48.801Z,3.60
2019-05-06T01:23:55.965Z,3.60
2019-05-06T01:25:03.977Z,3.60
2019-05-06T01:26:11.539Z,3.60
2019-05-06T01:27:18.320Z,3.70
2019-05-06T01:28:25.050Z,3.70
2019-05-06T01:29:32.049Z,3.70
2019-05-06T01:30:38.879Z,3.70
2019-05-06T01:31:46.214Z,3.70
2019-05-06T01:32:54.335Z,3.80
2019-05-06T01:34:04.108Z,3.80
2019-05-06T01:35:10.913Z,3.90
2019-05-06T01:36:17.678Z,3.90
2019-05-06T01:37:27.449Z,3.90
2019-05-06T01:39:10.637Z,4.00
2019-05-06T01:40:37.034Z,4.00
2019-05-06T01:42:04.451Z,4.10
2019-05-06T01:43:16.661Z,4.20
2019-05-06T01:44:24.404Z,4.20
2019-05-06T01:45:31.380Z,4.30
2019-05-06T01:46:38.127Z,4.30
2019-05-06T01:47:44.888Z,4.30
2019-05-06T01:48:53.651Z,4.40
2019-05-06T01:50:00.593Z,4.40
2019-05-06T01:51:07.709Z,4.40
2019-05-06T01:52:14.665Z,4.50
2019-05-06T01:53:23.879Z,4.50
2019-05-06T01:54:30.743Z,4.50
2019-05-06T01:55:37.525Z,4.50
2019-05-06T01:56:44.673Z,4.50
2019-05-06T01:57:51.426Z,4.60
2019-05-06T01:58:58.820Z,4.60
2019-05-06T02:00:09.024Z,4.60
2019-05-06T02:01:15.950Z,4.60
2019-05-06T02:02:23.895Z,4.60
2019-05-06T02:03:31.558Z,4.60
2019-05-06T02:04:38.721Z,4.70
2019-05-06T02:05:46.097Z,4.70
2019-05-06T02:06:54.586Z,4.70
2019-05-06T02:08:03.868Z,4.70
2019-05-06T02:09:16.862Z,4.70
2019-05-06T02:10:23.923Z,4.70
2019-05-06T02:11:31.144Z,4.70
2019-05-06T02:12:38.311Z,4.80
2019-05-06T02:13:45.893Z,4.80
2019-05-06T02:14:54.290Z,4.80
2019-05-06T02:16:01.291Z,4.80
2019-05-06T02:17:08.351Z,4.80
2019-05-06T02:18:17.022Z,4.80
2019-05-06T02:19:24.352Z,4.80
2019-05-06T02:20:31.526Z,4.80
2019-05-06T02:22:06.280Z,4.80
2019-05-06T02:23:17.319Z,4.80
2019-05-06T02:24:30.456Z,4.90
2019-05-06T02:25:49.047Z,4.80
2019-05-06T02:26:55.802Z,4.90
2019-05-06T02:28:03.963Z,4.90
2019-05-06T02:29:15.215Z,4.90
2019-05-06T02:30:30.484Z,4.90
2019-05-06T02:32:00.746Z,4.90
2019-05-06T02:33:40.599Z,4.90
2019-05-06T02:35:05.178Z,4.90
2019-05-06T02:36:48.335Z,4.90
2019-05-06T02:37:55.414Z,4.90
2019-05-06T02:39:03.623Z,4.90
2019-05-06T02:40:26.178Z,4.90
2019-05-06T02:41:33.824Z,4.90
2019-05-06T02:42:43.173Z,4.90
2019-05-06T02:43:49.816Z,4.90
2019-05-06T02:44:56.745Z,4.90
2019-05-06T02:46:04.196Z,4.90
2019-05-06T02:47:23.143Z,4.90
2019-05-06T02:48:47.711Z,4.90
2019-05-06T02:49:57.999Z,4.90
2019-05-06T02:51:07.996Z,4.90
2019-05-06T02:52:14.750Z,4.90
2019-05-06T02:53:23.732Z,4.90
2019-05-06T02:54:34.144Z,4.90
2019-05-06T02:55:38.962Z,4.90
2019-05-06T02:56:46.079Z,5.00
2019-05-06T02:57:53.705Z,4.90
2019-05-06T02:59:03.793Z,4.90
2019-05-06T03:00:14.338Z,4.90
2019-05-06T03:01:23.289Z,4.90
2019-05-06T03:02:42.014Z,4.90
2019-05-06T03:03:38.424Z,5.00
2019-05-06T03:04:45.235Z,4.90
2019-05-06T03:05:53.201Z,5.00
2019-05-06T03:07:03.554Z,5.00
2019-05-06T03:08:09.267Z,5.00
2019-05-06T03:09:16.336Z,5.00
2019-05-06T03:10:24.709Z,5.00
2019-05-06T03:11:33.215Z,5.00
2019-05-06T03:12:42.890Z,5.00
2019-05-06T03:13:48.523Z,5.00
2019-05-06T03:14:55.630Z,4.90
2019-05-06T03:16:05.395Z,4.90
2019-05-06T03:17:13.727Z,4.90
2019-05-06T03:18:19.424Z,4.90
2019-05-06T03:19:27.338Z,4.90
2019-05-06T03:21:03.888Z,4.90
2019-05-06T03:22:34.133Z,4.90
2019-05-06T03:23:43.774Z,5.00
2019-05-06T03:25:07.219Z,5.00
2019-05-06T03:26:14.816Z,4.90
2019-05-06T03:27:23.495Z,5.00
2019-05-06T03:28:33.114Z,4.90
2019-05-06T03:29:38.936Z,5.00
2019-05-06T03:30:46.455Z,5.00
2019-05-06T03:31:56.267Z,5.00
2019-05-06T03:34:35.929Z,5.00
2019-05-06T03:35:36.412Z,5.00
2019-05-06T03:36:34.573Z,5.00
2019-05-06T03:37:37.641Z,5.00
2019-05-06T03:38:44.514Z,5.00
2019-05-06T03:39:52.926Z,5.00
2019-05-06T03:41:02.986Z,5.00
2019-05-06T03:42:08.902Z,5.00
2019-05-06T03:43:16.542Z,5.00
2019-05-06T03:44:24.150Z,5.00
2019-05-06T03:46:08.372Z,5.00
2019-05-06T03:47:49.470Z,5.10
2019-05-06T03:49:03.525Z,5.10
2019-05-06T03:50:09.523Z,5.10
2019-05-06T03:51:16.352Z,5.10
2019-05-06T03:52:25.504Z,5.10
2019-05-06T03:53:34.584Z,5.10
2019-05-06T03:54:45.115Z,5.10
2019-05-06T03:55:54.367Z,5.10
2019-05-06T03:57:03.241Z,5.10
2019-05-06T03:58:13.410Z,5.10
2019-05-06T03:59:23.324Z,5.10
2019-05-06T04:00:33.180Z,5.10
2019-05-06T04:01:38.993Z,5.10
2019-05-06T04:02:45.719Z,5.10
2019-05-06T04:03:56.990Z,5.10
2019-05-06T04:05:03.929Z,5.10
2019-05-06T04:06:09.704Z,5.20
2019-05-06T04:07:17.035Z,5.10
2019-05-06T04:08:25.802Z,5.10
2019-05-06T04:09:36.296Z,5.10
2019-05-06T04:10:43.539Z,5.10
2019-05-06T04:11:53.869Z,5.20
2019-05-06T04:13:04.108Z,5.10
2019-05-06T04:14:13.908Z,5.10
2019-05-06T04:15:22.980Z,5.20
2019-05-06T04:16:55.033Z,5.20
2019-05-06T04:18:06.930Z,5.20
2019-05-06T04:19:23.798Z,5.20
2019-05-06T04:20:54.295Z,5.20
2019-05-06T04:22:25.660Z,5.20
2019-05-06T04:23:44.753Z,5.20
2019-05-06T04:25:14.565Z,5.30
2019-05-06T04:26:28.425Z,5.30
2019-05-06T04:27:43.793Z,5.30
2019-05-06T04:28:53.452Z,5.30
2019-05-06T04:29:59.461Z,5.40
2019-05-06T04:31:07.576Z,5.40
2019-05-06T04:32:14.865Z,5.40
2019-05-06T04:33:23.690Z,5.50
2019-05-06T04:34:33.150Z,5.50
2019-05-06T04:35:39.341Z,5.60
2019-05-06T04:36:46.360Z,5.50
2019-05-06T04:37:54.120Z,5.50
2019-05-06T04:39:04.150Z,5.60
2019-05-06T04:40:12.984Z,5.50
2019-05-06T04:41:19.132Z,5.50
2019-05-06T04:42:27.019Z,5.50
2019-05-06T04:43:34.712Z,5.50
2019-05-06T04:44:43.845Z,5.50
2019-05-06T04:45:50.322Z,5.60
2019-05-06T04:46:57.353Z,5.50
2019-05-06T04:48:05.210Z,5.60
2019-05-06T04:49:14.953Z,5.60
2019-05-06T04:50:24.039Z,5.60
2019-05-06T04:51:33.367Z,5.60
2019-05-06T04:52:39.444Z,5.60
2019-05-06T04:53:47.558Z,5.60
2019-05-06T04:54:54.513Z,5.60
2019-05-06T04:56:03.931Z,5.60
2019-05-06T04:57:12.714Z,5.60
2019-05-06T04:58:18.467Z,5.70
2019-05-06T04:59:25.554Z,5.70
2019-05-06T05:00:33.255Z,5.70
2019-05-06T05:01:40.472Z,5.70
2019-05-06T05:02:47.710Z,5.80
2019-05-06T05:03:54.434Z,5.80
2019-05-06T05:05:04.168Z,5.80
2019-05-06T05:06:10.465Z,5.80
2019-05-06T05:07:18.366Z,5.90
2019-05-06T05:08:37.213Z,5.90
2019-05-06T05:09:43.928Z,5.90
2019-05-06T05:11:05.620Z,6.00
2019-05-06T05:12:33.649Z,6.00
2019-05-06T05:14:13.413Z,6.00
2019-05-06T05:15:44.497Z,6.00
2019-05-06T05:17:02.282Z,6.10
2019-05-06T05:18:23.305Z,6.10
2019-05-06T05:19:32.749Z,6.10
2019-05-06T05:20:45.625Z,6.10
2019-05-06T05:21:48.368Z,6.10
2019-05-06T05:22:55.414Z,6.20
2019-05-06T05:24:02.489Z,6.10
2019-05-06T05:25:09.632Z,6.20
2019-05-06T05:26:16.805Z,6.20
2019-05-06T05:27:23.529Z,6.20
2019-05-06T05:28:32.016Z,6.20
2019-05-06T05:29:39.026Z,6.20
2019-05-06T05:30:46.331Z,6.20
2019-05-06T05:31:53.369Z,6.20
2019-05-06T05:33:00.096Z,6.20
2019-05-06T05:34:06.862Z,6.30
2019-05-06T05:35:14.171Z,6.30
2019-05-06T05:36:23.221Z,6.30
2019-05-06T05:37:30.394Z,6.30
2019-05-06T05:38:37.148Z,6.30
2019-05-06T05:39:44.748Z,6.40
2019-05-06T05:40:52.363Z,6.30
2019-05-06T05:42:04.284Z,6.40
2019-05-06T05:43:22.792Z,6.40
2019-05-06T05:44:35.296Z,6.40
2019-05-06T05:45:42.496Z,6.40
2019-05-06T05:46:49.278Z,6.40
2019-05-06T05:47:57.637Z,6.40
2019-05-06T05:49:27.447Z,6.40
2019-05-06T05:50:38.012Z,6.40
2019-05-06T05:51:44.798Z,6.50
2019-05-06T05:52:52.106Z,6.40
2019-05-06T05:53:58.854Z,6.50
2019-05-06T05:55:06.093Z,6.60
2019-05-06T05:56:13.358Z,6.50
2019-05-06T05:57:22.547Z,6.60
2019-05-06T05:58:29.733Z,6.60
2019-05-06T05:59:36.915Z,6.60
2019-05-06T06:00:44.393Z,6.70
2019-05-06T06:01:52.949Z,6.70
2019-05-06T06:03:00.416Z,6.70
2019-05-06T06:04:07.729Z,6.80
2019-05-06T06:05:15.057Z,6.80
2019-05-06T06:06:22.313Z,6.80
2019-05-06T06:07:29.311Z,6.80
2019-05-06T06:08:36.950Z,6.90
2019-05-06T06:09:55.046Z,6.90
2019-05-06T06:11:07.362Z,6.90
2019-05-06T06:12:14.532Z,6.90
2019-05-06T06:13:22.285Z,6.90
2019-05-06T06:14:48.120Z,6.90
2019-05-06T06:16:14.098Z,6.90
2019-05-06T06:17:40.302Z,6.90
2019-05-06T06:18:54.788Z,7.00
2019-05-06T06:20:04.592Z,7.10
2019-05-06T06:21:32.310Z,7.10
2019-05-06T06:22:39.848Z,7.10
2019-05-06T06:23:47.106Z,7.10
2019-05-06T06:24:54.215Z,7.20
2019-05-06T06:26:03.870Z,7.20
2019-05-06T06:27:09.756Z,7.20
2019-05-06T06:28:16.470Z,7.40
2019-05-06T06:29:23.255Z,7.40
2019-05-06T06:30:49.221Z,7.50
2019-05-06T06:32:17.243Z,7.50
2019-05-06T06:33:24.313Z,7.50
2019-05-06T06:34:35.891Z,7.70
2019-05-06T06:36:02.855Z,7.70
2019-05-06T06:37:46.726Z,7.80
2019-05-06T06:39:02.160Z,8.00
2019-05-06T06:40:10.216Z,8.10
2019-05-06T06:41:17.187Z,8.30
2019-05-06T06:42:24.142Z,8.30
2019-05-06T06:43:32.429Z,8.40
2019-05-06T06:44:39.379Z,8.40
2019-05-06T06:45:46.128Z,8.30
2019-05-06T06:46:52.853Z,8.30
2019-05-06T06:47:59.783Z,8.30
2019-05-06T06:49:06.679Z,8.20
2019-05-06T06:50:14.589Z,8.20
2019-05-06T06:51:23.339Z,8.20
2019-05-06T06:52:32.403Z,8.20
2019-05-06T06:53:38.423Z,8.20
2019-05-06T06:54:45.291Z,8.20
2019-05-06T06:55:53.646Z,8.30
2019-05-06T06:57:16.908Z,8.40
2019-05-06T06:58:32.390Z,8.40
2019-05-06T06:59:49.746Z,8.40
2019-05-06T07:01:16.937Z,8.50
2019-05-06T07:02:49.870Z,8.60
2019-05-06T07:04:10.286Z,8.80
2019-05-06T07:05:35.057Z,9.00
2019-05-06T07:06:48.273Z,9.00
2019-05-06T07:07:55.131Z,9.30
2019-05-06T07:09:02.730Z,9.30
2019-05-06T07:10:12.821Z,9.30
2019-05-06T07:11:20.005Z,9.30
2019-05-06T07:12:27.186Z,9.30
2019-05-06T07:13:34.877Z,9.30
2019-05-06T07:14:42.786Z,9.40
2019-05-06T07:15:52.023Z,9.40
2019-05-06T07:16:58.518Z,9.50
2019-05-06T07:18:05.456Z,9.50
2019-05-06T07:19:14.554Z,9.60
2019-05-06T07:20:23.139Z,9.80
2019-05-06T07:21:34.909Z,9.80
2019-05-06T07:22:42.518Z,9.90
2019-05-06T07:23:50.012Z,10.00
2019-05-06T07:24:56.965Z,10.10
2019-05-06T07:26:03.682Z,10.10
2019-05-06T07:27:15.308Z,10.10
2019-05-06T07:28:22.804Z,10.20
2019-05-06T07:29:29.986Z,10.40
2019-05-06T07:30:37.286Z,10.40
2019-05-06T07:31:44.380Z,10.60
2019-05-06T07:32:52.779Z,10.50
2019-05-06T07:34:02.501Z,10.50
2019-05-06T07:35:09.074Z,10.60
2019-05-06T07:36:16.183Z,10.50
2019-05-06T07:37:22.974Z,10.50
2019-05-06T07:38:32.366Z,10.60
2019-05-06T07:39:38.927Z,10.60
2019-05-06T07:40:48.243Z,10.50
2019-05-06T07:41:57.928Z,10.50
2019-05-06T07:43:23.515Z,10.40
2019-05-06T07:44:58.668Z,10.40
2019-05-06T07:46:14.103Z,10.30
2019-05-06T07:47:28.516Z,10.30
2019-05-06T07:48:35.276Z,10.30
2019-05-06T07:49:43.167Z,10.30
2019-05-06T07:50:51.940Z,10.20
2019-05-06T07:51:58.585Z,10.20
2019-05-06T07:53:09.677Z,10.20
2019-05-06T07:54:16.392Z,10.20
2019-05-06T07:55:23.231Z,10.20
2019-05-06T07:56:32.211Z,10.30
2019-05-06T07:57:38.822Z,10.20
2019-05-06T07:58:45.549Z,10.20
2019-05-06T07:59:52.633Z,10.00
2019-05-06T08:00:59.523Z,10.00
2019-05-06T08:02:06.440Z,9.90
2019-05-06T08:03:14.022Z,9.90
2019-05-06T08:04:23.430Z,9.90
2019-05-06T08:05:32.186Z,9.90
2019-05-06T08:06:38.586Z,9.90
2019-05-06T08:07:45.338Z,10.00
2019-05-06T08:08:53.725Z,10.10
2019-05-06T08:10:02.193Z,10.10
2019-05-06T08:11:09.479Z,10.20
2019-05-06T08:12:16.396Z,10.30
2019-05-06T08:13:23.703Z,10.30
2019-05-06T08:14:43.438Z,10.40
2019-05-06T08:15:52.696Z,10.50
2019-05-06T08:17:03.257Z,10.70
2019-05-06T08:18:12.549Z,10.80
2019-05-06T08:19:19.400Z,10.80
2019-05-06T08:20:37.417Z,11.00
2019-05-06T08:21:45.793Z,11.10
2019-05-06T08:23:08.679Z,11.20
2019-05-06T08:24:15.394Z,11.00
2019-05-06T08:25:22.937Z,11.10
2019-05-06T08:26:32.250Z,11.00
2019-05-06T08:27:39.139Z,10.90
2019-05-06T08:28:46.153Z,10.80
2019-05-06T08:29:53.393Z,10.90
2019-05-06T08:31:02.369Z,11.00
2019-05-06T08:32:09.060Z,11.10
2019-05-06T08:33:16.021Z,11.10
2019-05-06T08:34:22.763Z,11.20
2019-05-06T08:35:29.830Z,11.40
2019-05-06T08:37:12.071Z,11.50
2019-05-06T08:38:19.026Z,11.60
2019-05-06T08:39:25.862Z,11.80
2019-05-06T08:40:32.605Z,12.00
2019-05-06T08:41:39.824Z,12.10
2019-05-06T08:42:46.770Z,12.20
2019-05-06T08:43:53.626Z,12.20
2019-05-06T08:45:02.244Z,12.30
2019-05-06T08:46:09.673Z,12.40
2019-05-06T08:47:16.385Z,12.40
2019-05-06T08:48:23.223Z,12.50
2019-05-06T08:49:32.478Z,12.50
2019-05-06T08:50:56.395Z,12.50
2019-05-06T08:52:09.968Z,12.60
2019-05-06T08:53:28.012Z,12.60
2019-05-06T08:54:44.904Z,12.60
2019-05-06T08:55:52.865Z,12.70
2019-05-06T08:57:02.455Z,12.60
2019-05-06T08:58:09.035Z,12.50
2019-05-06T08:59:15.770Z,12.40
2019-05-06T09:00:22.855Z,12.30
2019-05-06T09:01:49.827Z,12.30
2019-05-06T09:02:56.544Z,12.30
2019-05-06T09:04:11.387Z,12.30
2019-05-06T09:05:12.625Z,12.40
2019-05-06T09:06:29.764Z,12.40
2019-05-06T09:07:28.148Z,12.40
2019-05-06T09:08:35.107Z,12.50
2019-05-06T09:09:42.190Z,12.70
2019-05-06T09:10:49.481Z,12.80
2019-05-06T09:11:56.970Z,12.90
2019-05-06T09:13:03.837Z,13.00
2019-05-06T09:14:13.367Z,13.20
2019-05-06T09:15:19.067Z,13.40
2019-05-06T09:16:25.803Z,13.50
2019-05-06T09:17:33.000Z,13.60
2019-05-06T09:18:42.616Z,13.80
2019-05-06T09:19:49.493Z,14.00
2019-05-06T09:20:56.211Z,14.10
2019-05-06T09:22:03.337Z,14.10
2019-05-06T09:23:12.294Z,14.30
2019-05-06T09:24:18.535Z,14.40
2019-05-06T09:25:26.110Z,14.60
2019-05-06T09:26:40.003Z,14.80
2019-05-06T09:27:54.378Z,14.90
2019-05-06T09:29:08.084Z,15.00
2019-05-06T09:30:24.232Z,15.00
2019-05-06T09:31:36.247Z,15.10
2019-05-06T09:32:44.455Z,14.80
2019-05-06T09:33:59.177Z,14.50
2019-05-06T09:35:07.279Z,14.40
2019-05-06T09:36:14.018Z,14.30
2019-05-06T09:37:23.571Z,14.10
2019-05-06T09:38:32.054Z,14.10
2019-05-06T09:39:38.481Z,14.10
2019-05-06T09:40:45.208Z,14.00
2019-05-06T09:41:57.829Z,14.00
2019-05-06T09:43:04.486Z,13.90
2019-05-06T09:44:09.553Z,13.80
2019-05-06T09:45:17.194Z,13.80
2019-05-06T09:46:23.940Z,13.70
2019-05-06T09:47:55.601Z,13.70
2019-05-06T09:49:19.754Z,13.60
2019-05-06T09:50:46.133Z,13.60
2019-05-06T09:51:52.894Z,13.70
2019-05-06T09:53:02.470Z,13.60
2019-05-06T09:54:32.201Z,13.60
2019-05-06T09:56:04.143Z,13.70
2019-05-06T09:57:14.872Z,13.80
2019-05-06T09:58:22.871Z,13.90
2019-05-06T09:59:32.059Z,14.10
2019-05-06T10:00:43.157Z,14.40
2019-05-06T10:01:52.804Z,14.60
2019-05-06T10:03:00.193Z,14.80
2019-05-06T10:04:09.903Z,14.90
2019-05-06T10:05:17.272Z,14.90
2019-05-06T10:06:24.024Z,14.80
2019-05-06T10:07:30.750Z,14.80
2019-05-06T10:08:37.504Z,14.70
2019-05-06T10:09:44.668Z,14.50
2019-05-06T10:10:58.695Z,14.50
2019-05-06T10:12:01.938Z,14.40
2019-05-06T10:13:08.976Z,14.00
2019-05-06T10:14:15.715Z,14.00
2019-05-06T10:15:23.891Z,14.00
2019-05-06T10:16:32.527Z,13.90
2019-05-06T10:17:39.530Z,13.90
2019-05-06T10:18:46.313Z,14.00
2019-05-06T10:19:53.398Z,14.10
2019-05-06T10:21:00.127Z,14.10
2019-05-06T10:22:07.559Z,14.20
2019-05-06T10:23:15.316Z,14.00
2019-05-06T10:24:22.067Z,14.10
2019-05-06T10:25:29.301Z,14.10
2019-05-06T10:26:43.186Z,14.00
2019-05-06T10:27:52.508Z,14.10
2019-05-06T10:29:37.031Z,14.10
2019-05-06T10:30:43.851Z,13.90
2019-05-06T10:31:56.692Z,13.70
2019-05-06T10:33:05.106Z,13.60
2019-05-06T10:34:13.848Z,13.40
2019-05-06T10:35:22.187Z,13.30
2019-05-06T10:36:39.623Z,13.10
2019-05-06T10:38:12.371Z,13.10
2019-05-06T10:39:24.234Z,13.00
2019-05-06T10:40:44.118Z,13.10
2019-05-06T10:41:50.215Z,13.20
2019-05-06T10:43:46.719Z,13.20
2019-05-06T10:45:12.397Z,13.20
2019-05-06T10:46:19.364Z,13.30
2019-05-06T10:47:26.444Z,13.30
2019-05-06T10:48:34.492Z,13.60
2019-05-06T10:49:42.056Z,13.80
2019-05-06T10:50:53.422Z,14.10
2019-05-06T10:52:12.570Z,14.40
2019-05-06T10:53:23.001Z,14.60
2019-05-06T10:54:31.806Z,14.90
2019-05-06T10:55:40.044Z,15.00
2019-05-06T10:56:57.052Z,15.10
2019-05-06T10:58:02.680Z,15.30
2019-05-06T10:59:10.156Z,15.30
2019-05-06T11:00:19.378Z,15.30
2019-05-06T11:01:33.070Z,15.30
2019-05-06T11:02:58.431Z,15.20
2019-05-06T11:04:05.479Z,15.30
2019-05-06T11:05:13.335Z,15.50
2019-05-06T11:06:22.087Z,15.60
2019-05-06T11:07:32.106Z,16.00
2019-05-06T11:08:37.601Z,16.10
2019-05-06T11:09:44.664Z,16.20
2019-05-06T11:10:53.501Z,16.10
2019-05-06T11:12:00.166Z,15.80
2019-05-06T11:13:07.099Z,15.60
2019-05-06T11:14:13.886Z,15.40
2019-05-06T11:15:23.375Z,15.30
2019-05-06T11:16:29.505Z,15.20
2019-05-06T11:17:36.340Z,14.90
2019-05-06T11:18:43.074Z,14.80
2019-05-06T11:19:50.219Z,14.50
2019-05-06T11:20:57.493Z,14.20
2019-05-06T11:22:04.686Z,14.10
2019-05-06T11:23:11.432Z,13.90
2019-05-06T11:24:18.536Z,13.80
2019-05-06T11:25:25.805Z,13.90
2019-05-06T11:26:32.528Z,14.00
2019-05-06T11:27:41.790Z,14.30
2019-05-06T11:29:00.197Z,14.40
2019-05-06T11:30:14.043Z,14.40
2019-05-06T11:31:33.246Z,14.40
2019-05-06T11:33:07.995Z,14.30
2019-05-06T11:34:39.434Z,14.40
2019-05-06T11:36:05.018Z,14.60
2019-05-06T11:37:47.023Z,14.60
2019-05-06T11:38:49.023Z,14.50
2019-05-06T11:39:56.089Z,14.10
2019-05-06T11:41:03.163Z,13.70
2019-05-06T11:42:24.909Z,13.50
2019-05-06T11:43:19.173Z,13.30
2019-05-06T11:44:26.241Z,13.10
2019-05-06T11:45:33.322Z,12.80
2019-05-06T11:46:40.051Z,12.70
2019-05-06T11:47:46.814Z,12.70
2019-05-06T11:48:53.549Z,12.60
2019-05-06T11:50:02.549Z,12.60
2019-05-06T11:51:12.685Z,12.50
2019-05-06T11:52:19.223Z,12.40
2019-05-06T11:53:26.081Z,12.50
2019-05-06T11:54:33.732Z,12.50
2019-05-06T11:55:41.025Z,12.60
2019-05-06T11:56:52.145Z,12.70
2019-05-06T11:57:56.527Z,12.80
2019-05-06T11:59:03.606Z,12.90
2019-05-06T12:00:15.361Z,13.00
2019-05-06T12:01:28.093Z,13.00
2019-05-06T12:02:35.149Z,13.20
2019-05-06T12:03:42.773Z,13.30
2019-05-06T12:04:49.763Z,13.40
2019-05-06T12:05:56.808Z,13.40
2019-05-06T12:07:11.428Z,13.60
2019-05-06T12:08:15.622Z,13.70
2019-05-06T12:09:22.239Z,13.70
2019-05-06T12:10:29.831Z,13.80
2019-05-06T12:11:36.627Z,13.90
2019-05-06T12:12:43.358Z,13.80
2019-05-06T12:13:50.129Z,13.70
2019-05-06T12:14:56.884Z,13.60
2019-05-06T12:16:03.666Z,13.50
2019-05-06T12:17:12.702Z,13.50
2019-05-06T12:18:18.939Z,13.50
2019-05-06T12:19:25.714Z,13.40
2019-05-06T12:20:32.957Z,13.40
2019-05-06T12:21:39.806Z,13.40
2019-05-06T12:22:47.178Z,13.50
2019-05-06T12:23:54.044Z,13.50
2019-05-06T12:25:04.417Z,13.60
2019-05-06T12:26:09.649Z,13.60
2019-05-06T12:27:35.251Z,13.60
2019-05-06T12:28:43.430Z,13.70
2019-05-06T12:29:52.792Z,13.60
2019-05-06T12:30:59.239Z,13.40
2019-05-06T12:32:33.187Z,13.30
2019-05-06T12:33:47.103Z,13.10
2019-05-06T12:34:54.426Z,12.70
2019-05-06T12:36:03.035Z,12.50
2019-05-06T12:37:12.184Z,12.30
2019-05-06T12:38:30.450Z,12.10
2019-05-06T12:39:34.597Z,11.90
2019-05-06T12:40:42.905Z,11.80
2019-05-06T12:42:11.867Z,11.60
2019-05-06T12:43:36.710Z,11.40
2019-05-06T12:44:52.959Z,11.10
2019-05-06T12:46:13.460Z,10.90
2019-05-06T12:47:32.625Z,10.80
2019-05-06T12:48:39.711Z,10.80
2019-05-06T12:49:46.456Z,10.80
2019-05-06T12:50:53.497Z,10.70
2019-05-06T12:52:00.703Z,10.70
2019-05-06T12:53:08.231Z,10.70
2019-05-06T12:54:14.969Z,10.70
2019-05-06T12:55:25.479Z,10.70
2019-05-06T12:56:32.312Z,10.80
2019-05-06T12:57:39.162Z,10.80
2019-05-06T12:58:45.925Z,10.90
2019-05-06T13:00:04.861Z,11.00
2019-05-06T13:01:13.689Z,11.20
2019-05-06T13:02:20.064Z,11.30
2019-05-06T13:03:27.005Z,11.50
2019-05-06T13:04:50.281Z,11.60
2019-05-06T13:05:42.868Z,11.70
2019-05-06T13:06:52.075Z,11.90
2019-05-06T13:07:58.741Z,12.10
2019-05-06T13:09:07.078Z,12.50
2019-05-06T13:10:14.566Z,12.70
2019-05-06T13:11:21.338Z,13.00
2019-05-06T13:12:30.347Z,13.30
2019-05-06T13:13:37.118Z,13.60
2019-05-06T13:14:44.273Z,13.70
2019-05-06T13:15:52.741Z,13.80
2019-05-06T13:16:59.665Z,13.90
2019-05-06T13:18:07.563Z,13.90
2019-05-06T13:19:16.404Z,14.10
2019-05-06T13:20:23.670Z,14.20
2019-05-06T13:21:32.565Z,14.30
2019-05-06T13:23:09.618Z,14.50
2019-05-06T13:24:12.449Z,14.60
2019-05-06T13:25:19.315Z,14.60
2019-05-06T13:26:26.186Z,14.50
2019-05-06T13:27:32.981Z,14.70
2019-05-06T13:28:43.463Z,14.90
2019-05-06T13:29:50.537Z,15.00
2019-05-06T13:31:13.553Z,15.20
2019-05-06T13:32:07.984Z,15.20
2019-05-06T13:33:26.654Z,15.20
2019-05-06T13:34:33.549Z,15.10
2019-05-06T13:35:41.936Z,14.90
2019-05-06T13:36:49.330Z,14.70
2019-05-06T13:37:56.264Z,14.30
2019-05-06T13:39:13.781Z,14.10
2019-05-06T13:40:12.306Z,13.90
2019-05-06T13:41:19.240Z,13.80
2019-05-06T13:42:28.067Z,13.70
2019-05-06T13:43:39.306Z,13.60
2019-05-06T13:44:46.039Z,13.50
2019-05-06T13:45:54.453Z,13.40
2019-05-06T13:47:03.022Z,13.30
2019-05-06T13:48:25.324Z,13.20
2019-05-06T13:49:47.648Z,13.10
2019-05-06T13:50:56.925Z,13.00
2019-05-06T13:52:06.265Z,12.90
2019-05-06T13:53:14.806Z,12.80
2019-05-06T13:54:22.319Z,12.80
2019-05-06T13:55:29.729Z,12.70
2019-05-06T13:56:36.517Z,12.60
2019-05-06T13:57:43.271Z,12.60
2019-05-06T13:58:52.438Z,12.50
2019-05-06T13:59:58.434Z,12.50
2019-05-06T14:01:07.845Z,12.40
2019-05-06T14:02:34.174Z,12.40
2019-05-06T14:03:42.991Z,12.30
2019-05-06T14:04:52.468Z,12.20
2019-05-06T14:05:58.430Z,12.30
2019-05-06T14:07:07.458Z,12.30
2019-05-06T14:08:14.195Z,12.20
2019-05-06T14:09:31.404Z,12.20
2019-05-06T14:10:29.409Z,12.20
2019-05-06T14:11:36.595Z,12.20
2019-05-06T14:12:43.358Z,12.30
2019-05-06T14:13:52.798Z,12.30
2019-05-06T14:14:58.846Z,12.30
2019-05-06T14:16:05.637Z,12.30
2019-05-06T14:17:14.286Z,12.30
2019-05-06T14:18:22.542Z,12.30
2019-05-06T14:19:29.394Z,12.30
2019-05-06T14:20:36.155Z,12.30
2019-05-06T14:21:43.427Z,12.20
2019-05-06T14:22:52.454Z,12.20
2019-05-06T14:23:58.694Z,12.20
2019-05-06T14:25:23.457Z,12.20
2019-05-06T14:26:39.591Z,12.20
2019-05-06T14:27:48.351Z,12.10
2019-05-06T14:29:05.260Z,12.00
2019-05-06T14:30:22.760Z,12.10
2019-05-06T14:31:35.439Z,12.10
2019-05-06T14:32:45.083Z,12.00
2019-05-06T14:33:52.531Z,12.00
2019-05-06T14:34:59.277Z,12.00
2019-05-06T14:36:06.369Z,12.00
2019-05-06T14:37:13.534Z,12.10
2019-05-06T14:38:24.316Z,12.00
2019-05-06T14:39:48.429Z,11.80
2019-05-06T14:40:59.034Z,11.90
2019-05-06T14:42:06.046Z,11.80
2019-05-06T14:43:13.839Z,11.60
2019-05-06T14:44:22.947Z,11.60
2019-05-06T14:45:29.424Z,11.60
2019-05-06T14:46:57.028Z,11.50
2019-05-06T14:48:03.852Z,11.40
2019-05-06T14:49:10.796Z,11.40
2019-05-06T14:50:19.299Z,11.40
2019-05-06T14:51:26.192Z,11.30
2019-05-06T14:52:33.512Z,11.20
2019-05-06T14:53:43.362Z,11.20
2019-05-06T14:54:54.123Z,11.00
2019-05-06T14:56:03.438Z,10.90
2019-05-06T14:57:13.489Z,10.80
2019-05-06T14:58:22.790Z,10.70
2019-05-06T14:59:29.452Z,10.70
2019-05-06T15:00:36.865Z,10.70
2019-05-06T15:01:45.391Z,10.70
2019-05-06T15:02:53.280Z,10.70
2019-05-06T15:04:00.431Z,10.80
2019-05-06T15:05:07.920Z,10.80
2019-05-06T15:06:14.703Z,10.80
2019-05-06T15:07:22.234Z,10.80
2019-05-06T15:08:29.282Z,10.90
2019-05-06T15:09:52.794Z,10.80
2019-05-06T15:10:44.758Z,10.80
2019-05-06T15:11:51.855Z,10.70
2019-05-06T15:12:59.245Z,10.80
2019-05-06T15:14:06.744Z,10.70
2019-05-06T15:15:13.815Z,10.70
2019-05-06T15:16:21.988Z,10.70
2019-05-06T15:17:28.782Z,10.70
2019-05-06T15:18:35.631Z,10.70
2019-05-06T15:19:43.031Z,10.70
2019-05-06T15:20:50.001Z,10.70
2019-05-06T15:21:57.286Z,10.60